createdAt,value
2023-05-13T00:00:05.999Z,82.45
2023-05-13T00:03:09.499Z,83.42
2023-05-13T00:06:12.720Z,84.21
2023-05-13T00:09:15.986Z,86.44
2023-05-13T00:12:18.996Z,86.33
2023-05-13T00:15:23.388Z,85.73
2023-05-13T00:18:26.709Z,88.86
2023-05-13T00:21:29.804Z,86.73
2023-05-13T00:24:32.886Z,89.78
2023-05-13T00:27:36.081Z,87.28
2023-05-13T00:30:42.085Z,89.81
2023-05-13T00:33:46.600Z,88.62
2023-05-13T00:36:50.052Z,90.77
2023-05-13T00:39:53.232Z,87.84
2023-05-13T00:42:56.665Z,89.67
2023-05-13T00:46:01.430Z,89.02
2023-05-13T00:49:06.002Z,90.16
2023-05-13T00:52:09.598Z,90.55
2023-05-13T00:55:14.546Z,91.52
2023-05-13T00:58:18.111Z,91.13
2023-05-13T01:01:32.092Z,91.57
2023-05-13T01:04:44.545Z,91.28
2023-05-13T01:07:56.701Z,95.12
2023-05-13T01:11:18.789Z,94.31
2023-05-13T01:14:27.530Z,95.27
2023-05-13T01:17:37.093Z,93.83
2023-05-13T01:20:43.763Z,93.69
2023-05-13T01:23:48.274Z,95.20
2023-05-13T01:26:51.652Z,96.05
2023-05-13T01:29:56.480Z,95.25
2023-05-13T01:33:04.476Z,95.80
2023-05-13T01:36:09.176Z,96.19
2023-05-13T01:39:15.169Z,95.21
2023-05-13T01:42:18.374Z,96.35
2023-05-13T01:45:21.471Z,98.78
2023-05-13T01:48:25.414Z,97.33
2023-05-13T01:51:28.425Z,98.46
2023-05-13T01:54:33.056Z,97.80
2023-05-13T01:57:41.564Z,97.57
2023-05-13T02:00:44.747Z,97.77
2023-05-13T02:03:47.909Z,98.72
2023-05-13T02:06:51.071Z,97.88
2023-05-13T02:09:59.584Z,98.61
2023-05-13T02:13:03.862Z,100.00
2023-05-13T02:16:07.985Z,99.15
2023-05-13T02:19:11.092Z,100.00
2023-05-13T02:22:14.337Z,100.00
2023-05-13T02:25:18.943Z,100.00
2023-05-13T02:28:21.934Z,100.00
2023-05-13T02:31:24.945Z,100.00
2023-05-13T02:34:28.246Z,100.00
2023-05-13T02:37:31.494Z,100.00
2023-05-13T02:40:39.790Z,100.00
2023-05-13T02:43:43.349Z,100.00
2023-05-13T02:46:46.823Z,100.00
2023-05-13T02:49:49.945Z,100.00
2023-05-13T02:52:53.128Z,100.00
2023-05-13T02:55:57.624Z,100.00
2023-05-13T02:59:02.340Z,100.00
2023-05-13T03:02:05.799Z,100.00
2023-05-13T03:05:09.926Z,100.00
2023-05-13T03:08:13.044Z,100.00
2023-05-13T03:11:17.353Z,100.00
2023-05-13T03:14:20.541Z,100.00
2023-05-13T03:17:24.874Z,100.00
2023-05-13T03:20:28.053Z,100.00
2023-05-13T03:23:31.533Z,100.00
2023-05-13T03:26:37.254Z,100.00
2023-05-13T03:29:40.959Z,100.00
2023-05-13T03:32:44.571Z,100.00
2023-05-13T03:35:49.780Z,100.00
2023-05-13T03:38:56.289Z,100.00
2023-05-13T03:42:01.091Z,100.00
2023-05-13T03:45:05.667Z,100.00
2023-05-13T03:48:11.803Z,100.00
2023-05-13T03:51:16.086Z,100.00
2023-05-13T03:54:19.337Z,100.00
2023-05-13T03:57:24.267Z,100.00
2023-05-13T04:00:27.310Z,100.00
2023-05-13T04:03:31.299Z,100.00
2023-05-13T04:06:34.399Z,100.00
2023-05-13T04:09:40.001Z,100.00
2023-05-13T04:12:44.555Z,100.00
2023-05-13T04:15:47.535Z,100.00
2023-05-13T04:18:50.644Z,100.00
2023-05-13T04:21:54.021Z,100.00
2023-05-13T04:24:59.529Z,100.00
2023-05-13T04:28:04.033Z,100.00
2023-05-13T04:31:14.980Z,100.00
2023-05-13T04:34:18.123Z,100.00
2023-05-13T04:37:23.373Z,100.00
2023-05-13T04:40:28.790Z,100.00
2023-05-13T04:43:36.390Z,100.00
2023-05-13T04:46:40.505Z,100.00
2023-05-13T04:49:43.797Z,100.00
2023-05-13T04:52:47.643Z,100.00
2023-05-13T04:55:57.195Z,100.00
2023-05-13T04:59:04.584Z,100.00
2023-05-13T05:02:07.719Z,100.00
2023-05-13T05:05:11.356Z,100.00
2023-05-13T05:08:14.526Z,100.00
2023-05-13T05:11:17.714Z,99.90
2023-05-13T05:14:22.249Z,99.53
2023-05-13T05:17:27.825Z,98.61
2023-05-13T05:20:31.433Z,96.92
2023-05-13T05:23:36.473Z,96.34
2023-05-13T05:26:41.142Z,98.54
2023-05-13T05:29:47.223Z,96.48
2023-05-13T05:32:51.329Z,96.16
2023-05-13T05:35:54.556Z,94.02
2023-05-13T05:38:59.157Z,93.04
2023-05-13T05:42:08.713Z,89.30
2023-05-13T05:45:14.049Z,89.53
2023-05-13T05:48:18.034Z,88.73
2023-05-13T05:51:21.130Z,84.46
2023-05-13T05:54:24.963Z,87.19
2023-05-13T05:57:28.753Z,83.75
2023-05-13T06:00:33.828Z,82.54
2023-05-13T06:03:37.254Z,80.72
2023-05-13T06:06:40.706Z,80.82
2023-05-13T06:09:43.996Z,82.94
2023-05-13T06:12:47.124Z,82.47
2023-05-13T06:15:51.652Z,78.29
2023-05-13T06:18:54.942Z,77.97
2023-05-13T06:21:58.006Z,75.92
2023-05-13T06:25:01.075Z,75.65
2023-05-13T06:28:06.135Z,76.17
2023-05-13T06:31:10.475Z,75.60
2023-05-13T06:34:16.588Z,71.46
2023-05-13T06:37:20.074Z,71.14
2023-05-13T06:40:23.792Z,74.08
2023-05-13T06:43:27.844Z,67.70
2023-05-13T06:46:35.643Z,69.95
2023-05-13T06:49:38.712Z,67.38
2023-05-13T06:52:42.141Z,65.83
2023-05-13T06:55:48.483Z,58.88
2023-05-13T06:58:51.832Z,60.11
2023-05-13T07:01:56.203Z,61.71
2023-05-13T07:04:59.323Z,56.87
2023-05-13T07:08:06.611Z,58.06
2023-05-13T07:11:09.717Z,54.19
2023-05-13T07:14:12.741Z,58.68
2023-05-13T07:17:17.967Z,54.50
2023-05-13T07:20:22.800Z,51.77
2023-05-13T07:23:26.629Z,55.51
2023-05-13T07:26:29.732Z,51.13
2023-05-13T07:29:32.984Z,53.67
2023-05-13T07:32:37.360Z,46.40
2023-05-13T07:35:40.757Z,46.11
2023-05-13T07:38:44.322Z,46.00
2023-05-13T07:41:47.723Z,47.64
2023-05-13T07:44:50.867Z,46.45
2023-05-13T07:47:55.292Z,43.80
2023-05-13T07:50:58.740Z,41.96
2023-05-13T07:54:01.880Z,41.99
2023-05-13T07:57:04.936Z,43.50
2023-05-13T08:00:09.639Z,44.66
2023-05-13T08:03:20.030Z,45.58
2023-05-13T08:06:23.131Z,45.49
2023-05-13T08:09:26.122Z,46.90
2023-05-13T08:12:29.236Z,48.17
2023-05-13T08:15:32.340Z,45.01
2023-05-13T08:18:36.774Z,46.11
2023-05-13T08:21:40.111Z,47.76
2023-05-13T08:24:43.491Z,46.13
2023-05-13T08:27:46.601Z,45.96
2023-05-13T08:30:49.667Z,44.58
2023-05-13T08:33:54.611Z,44.57
2023-05-13T08:36:57.665Z,47.31
2023-05-13T08:40:01.570Z,45.65
2023-05-13T08:43:06.203Z,44.09
2023-05-13T08:46:11.832Z,47.64
2023-05-13T08:49:16.769Z,44.46
2023-05-13T08:52:22.594Z,43.66
2023-05-13T08:55:27.757Z,42.87
2023-05-13T08:58:30.836Z,45.55
2023-05-13T09:01:34.103Z,41.02
2023-05-13T09:04:41.664Z,40.36
2023-05-13T09:07:44.952Z,42.69
2023-05-13T09:10:48.217Z,40.35
2023-05-13T09:13:59.479Z,42.42
2023-05-13T09:17:03.056Z,42.14
2023-05-13T09:20:12.106Z,41.30
2023-05-13T09:23:15.865Z,40.79
2023-05-13T09:26:29.151Z,39.09
2023-05-13T09:29:33.294Z,39.00
2023-05-13T09:32:36.682Z,40.35
2023-05-13T09:35:49.066Z,39.46
2023-05-13T09:38:56.674Z,43.93
2023-05-13T09:41:59.884Z,39.55
2023-05-13T09:45:07.775Z,32.97
2023-05-13T09:48:11.325Z,35.05
2023-05-13T09:51:16.605Z,33.41
2023-05-13T09:54:19.940Z,38.10
2023-05-13T09:57:23.079Z,33.24
2023-05-13T10:00:32.564Z,34.18
2023-05-13T10:03:39.029Z,32.17
2023-05-13T10:06:43.908Z,34.51
2023-05-13T10:09:47.581Z,34.22
2023-05-13T10:12:52.530Z,32.81
2023-05-13T10:15:56.952Z,32.06
2023-05-13T10:19:00.445Z,30.66
2023-05-13T10:22:05.468Z,31.48
2023-05-13T10:25:09.702Z,30.28
2023-05-13T10:28:13.615Z,31.18
2023-05-13T10:31:17.391Z,29.93
2023-05-13T10:34:20.733Z,31.04
2023-05-13T10:37:51.627Z,31.83
2023-05-13T10:41:13.217Z,30.19
2023-05-13T10:44:16.491Z,32.88
2023-05-13T10:47:19.582Z,32.64
2023-05-13T10:50:26.728Z,30.36
2023-05-13T10:53:33.142Z,31.00
2023-05-13T10:56:36.286Z,33.45
2023-05-13T11:00:19.140Z,30.94
2023-05-13T11:03:31.089Z,29.17
2023-05-13T11:06:37.225Z,31.51
2023-05-13T11:09:41.725Z,30.36
2023-05-13T11:13:24.554Z,30.98
2023-05-13T11:16:27.731Z,28.83
2023-05-13T11:19:33.181Z,28.36
2023-05-13T11:22:36.930Z,29.58
2023-05-13T11:25:41.279Z,30.74
2023-05-13T11:29:06.938Z,28.54
2023-05-13T11:32:10.041Z,29.01
2023-05-13T11:35:15.148Z,29.83
2023-05-13T11:38:25.292Z,30.23
2023-05-13T11:41:33.192Z,28.62
2023-05-13T11:44:36.566Z,29.57
2023-05-13T11:47:39.628Z,28.33
2023-05-13T11:50:42.839Z,30.11
2023-05-13T11:53:45.991Z,29.26
2023-05-13T11:56:50.556Z,30.91
2023-05-13T11:59:57.951Z,28.09
2023-05-13T12:03:03.468Z,27.37
2023-05-13T12:06:07.128Z,29.07
2023-05-13T12:09:12.728Z,28.46
2023-05-13T12:12:18.136Z,28.35
2023-05-13T12:15:23.221Z,30.10
2023-05-13T12:18:26.622Z,28.68
2023-05-13T12:21:34.452Z,29.33
2023-05-13T12:24:37.590Z,28.67
2023-05-13T12:27:41.850Z,29.06
2023-05-13T12:30:52.239Z,28.52
2023-05-13T12:33:55.297Z,28.69
2023-05-13T12:36:58.406Z,27.79
2023-05-13T12:40:22.934Z,30.40
2023-05-13T12:43:35.858Z,31.04
2023-05-13T12:46:40.229Z,29.55
2023-05-13T12:49:54.098Z,32.22
2023-05-13T12:52:59.860Z,29.07
2023-05-13T12:56:03.417Z,29.16
2023-05-13T12:59:09.018Z,30.25
2023-05-13T13:02:12.061Z,28.06
2023-05-13T13:05:15.211Z,29.95
2023-05-13T13:08:18.670Z,31.77
2023-05-13T13:11:22.294Z,29.74
2023-05-13T13:14:26.555Z,31.19
2023-05-13T13:17:33.738Z,30.83
2023-05-13T13:20:37.660Z,31.80
2023-05-13T13:28:18.108Z,29.28
2023-05-13T13:31:22.479Z,30.09
2023-05-13T13:34:25.441Z,29.91
2023-05-13T13:37:28.609Z,30.34
2023-05-13T13:40:31.607Z,33.03
2023-05-13T13:43:34.626Z,31.31
2023-05-13T13:46:39.059Z,31.29
2023-05-13T13:49:42.250Z,31.75
2023-05-13T13:52:48.370Z,28.69
2023-05-13T13:55:51.399Z,28.71
2023-05-13T13:58:54.416Z,32.27
2023-05-13T14:01:59.066Z,29.91
2023-05-13T14:05:02.462Z,29.96
2023-05-13T14:08:06.367Z,29.93
2023-05-13T14:11:09.373Z,30.02
2023-05-13T14:14:13.912Z,29.64
2023-05-13T14:17:18.329Z,31.96
2023-05-13T14:20:22.199Z,30.98
2023-05-13T14:23:25.464Z,30.74
2023-05-13T14:26:28.630Z,30.59
2023-05-13T14:29:32.127Z,29.02
2023-05-13T14:32:36.563Z,30.08
2023-05-13T14:35:39.544Z,30.44
2023-05-13T14:38:42.744Z,32.06
2023-05-13T14:41:46.144Z,32.64
2023-05-13T14:44:49.330Z,29.20
2023-05-13T14:47:54.130Z,29.26
2023-05-13T14:50:57.538Z,31.44
2023-05-13T14:54:00.570Z,28.92
2023-05-13T14:57:03.884Z,28.06
2023-05-13T15:00:08.834Z,28.29
2023-05-13T15:03:13.481Z,28.82
2023-05-13T15:06:16.775Z,27.07
2023-05-13T15:09:19.956Z,28.94
2023-05-13T15:12:23.141Z,28.48
2023-05-13T15:15:26.300Z,27.42
2023-05-13T15:18:30.920Z,29.74
2023-05-13T15:21:34.078Z,28.59
2023-05-13T15:24:37.364Z,27.82
2023-05-13T15:27:40.946Z,29.40
2023-05-13T15:30:44.948Z,26.84
2023-05-13T15:33:49.801Z,27.95
2023-05-13T15:36:52.919Z,28.17
2023-05-13T15:39:55.948Z,28.29
2023-05-13T15:42:58.854Z,31.08
2023-05-13T15:46:01.990Z,31.37
2023-05-13T15:49:06.672Z,33.71
2023-05-13T15:52:10.083Z,36.24
2023-05-13T15:55:13.176Z,38.49
2023-05-13T15:58:16.317Z,38.05
2023-05-13T16:01:19.331Z,41.75
2023-05-13T16:04:23.879Z,44.15
2023-05-13T16:07:29.040Z,47.85
2023-05-13T16:10:32.042Z,49.60
2023-05-13T16:13:35.303Z,53.45
2023-05-13T16:16:38.649Z,54.27
2023-05-13T16:19:43.121Z,55.70
2023-05-13T16:22:46.242Z,59.40
2023-05-13T16:25:49.461Z,61.39
2023-05-13T16:28:52.931Z,56.88
2023-05-13T16:31:57.072Z,57.62
2023-05-13T16:35:02.326Z,63.62
2023-05-13T16:38:05.256Z,59.00
2023-05-13T16:41:08.455Z,56.09
2023-05-13T16:44:12.117Z,58.32
2023-05-13T16:47:15.598Z,57.51
2023-05-13T16:50:20.204Z,55.31
2023-05-13T16:53:23.678Z,56.10
2023-05-13T16:56:26.620Z,55.96
2023-05-13T16:59:32.816Z,57.12
2023-05-13T17:02:50.967Z,55.54
2023-05-13T17:05:55.544Z,54.61
2023-05-13T17:08:58.600Z,54.61
2023-05-13T17:12:01.621Z,53.66
2023-05-13T17:15:05.602Z,59.26
2023-05-13T17:18:08.774Z,62.77
2023-05-13T17:21:13.285Z,58.53
2023-05-13T17:24:16.622Z,58.40
2023-05-13T17:27:19.572Z,60.60
2023-05-13T17:30:23.024Z,59.41
2023-05-13T17:33:26.107Z,60.96
2023-05-13T17:36:32.548Z,60.50
2023-05-13T17:39:35.689Z,61.15
2023-05-13T17:42:38.875Z,60.28
2023-05-13T17:45:45.051Z,62.80
2023-05-13T17:48:48.192Z,60.63
2023-05-13T17:51:52.573Z,62.65
2023-05-13T17:54:55.736Z,62.72
2023-05-13T17:57:59.793Z,63.34
2023-05-13T18:01:03.167Z,64.76
2023-05-13T18:04:06.494Z,64.93
2023-05-13T18:07:10.964Z,67.79
2023-05-13T18:10:14.219Z,66.16
2023-05-13T18:13:17.222Z,67.12
2023-05-13T18:16:20.557Z,68.08
2023-05-13T18:19:23.598Z,68.48
2023-05-13T18:22:27.976Z,69.37
2023-05-13T18:25:33.579Z,73.89
2023-05-13T18:28:38.340Z,74.44
2023-05-13T18:31:41.688Z,77.43
2023-05-13T18:34:44.727Z,77.69
2023-05-13T18:37:49.106Z,75.61
2023-05-13T18:40:52.322Z,78.23
2023-05-13T18:43:58.119Z,82.69
2023-05-13T18:47:01.127Z,86.42
2023-05-13T18:50:04.514Z,89.87
2023-05-13T18:53:08.809Z,91.64
2023-05-13T18:56:12.004Z,96.16
2023-05-13T18:59:15.087Z,95.76
2023-05-13T19:02:18.334Z,98.05
2023-05-13T19:05:21.452Z,100.00
2023-05-13T19:08:25.789Z,100.00
2023-05-13T19:11:28.826Z,100.00
2023-05-13T19:14:31.758Z,100.00
2023-05-13T19:17:40.263Z,100.00
2023-05-13T19:20:46.290Z,100.00
2023-05-13T19:23:51.260Z,100.00
2023-05-13T19:26:57.029Z,100.00
2023-05-13T19:30:01.410Z,100.00
2023-05-13T19:33:05.643Z,100.00
2023-05-13T19:36:10.710Z,100.00
2023-05-13T19:39:16.501Z,100.00
2023-05-13T19:42:19.547Z,100.00
2023-05-13T19:45:22.609Z,100.00
2023-05-13T19:48:30.149Z,100.00
2023-05-13T19:51:33.511Z,100.00
2023-05-13T19:54:38.209Z,100.00
2023-05-13T19:57:42.564Z,100.00
2023-05-13T20:00:46.305Z,100.00
2023-05-13T20:03:49.433Z,100.00
2023-05-13T20:06:52.985Z,100.00
2023-05-13T20:09:57.477Z,100.00
2023-05-13T20:13:01.740Z,100.00
2023-05-13T20:16:04.884Z,100.00
2023-05-13T20:19:08.393Z,100.00
2023-05-13T20:22:11.847Z,100.00
2023-05-13T20:25:16.674Z,100.00
2023-05-13T20:28:19.627Z,100.00
2023-05-13T20:31:23.070Z,100.00
2023-05-13T20:34:26.192Z,100.00
2023-05-13T20:37:29.436Z,100.00
2023-05-13T20:40:33.911Z,100.00
2023-05-13T20:43:37.358Z,100.00
2023-05-13T20:46:40.454Z,100.00
2023-05-13T20:49:44.545Z,100.00
2023-05-13T20:52:47.618Z,100.00
2023-05-13T20:55:51.961Z,100.00
2023-05-13T20:58:55.282Z,100.00
2023-05-13T21:01:58.515Z,100.00
2023-05-13T21:05:01.644Z,100.00
2023-05-13T21:08:05.090Z,100.00
2023-05-13T21:11:09.756Z,100.00
2023-05-13T21:14:12.797Z,100.00
2023-05-13T21:17:21.209Z,100.00
2023-05-13T21:20:24.680Z,100.00
2023-05-13T21:23:27.930Z,100.00
2023-05-13T21:26:32.385Z,100.00
2023-05-13T21:29:35.486Z,100.00
2023-05-13T21:32:38.545Z,100.00
2023-05-13T21:35:41.697Z,100.00
2023-05-13T21:38:45.023Z,100.00
2023-05-13T21:41:49.577Z,100.00
2023-05-13T21:44:53.216Z,100.00
2023-05-13T21:47:56.331Z,100.00
2023-05-13T21:50:59.390Z,100.00
2023-05-13T21:54:02.382Z,100.00
2023-05-13T21:57:08.893Z,100.00
2023-05-13T22:00:15.261Z,100.00
2023-05-13T22:03:21.478Z,100.00
2023-05-13T22:06:24.668Z,100.00
2023-05-13T22:09:27.674Z,100.00
2023-05-13T22:12:32.044Z,100.00
2023-05-13T22:15:35.473Z,100.00
2023-05-13T22:18:39.097Z,100.00
2023-05-13T22:21:42.218Z,100.00
2023-05-13T22:24:45.328Z,100.00
2023-05-13T22:27:51.382Z,100.00
2023-05-13T22:30:55.344Z,100.00
2023-05-13T22:33:58.411Z,100.00
2023-05-13T22:37:02.501Z,100.00
2023-05-13T22:40:07.441Z,100.00
2023-05-13T22:43:11.740Z,100.00
2023-05-13T22:46:14.872Z,100.00
2023-05-13T22:49:20.356Z,100.00
2023-05-13T22:52:23.433Z,100.00
2023-05-13T22:55:26.360Z,100.00
2023-05-13T22:58:30.764Z,100.00
2023-05-13T23:01:33.805Z,100.00
2023-05-13T23:04:37.199Z,100.00
2023-05-13T23:07:40.475Z,100.00
2023-05-13T23:10:43.561Z,100.00
2023-05-13T23:13:47.797Z,100.00
2023-05-13T23:16:50.738Z,100.00
2023-05-13T23:19:53.802Z,100.00
2023-05-13T23:22:56.963Z,100.00
2023-05-13T23:25:59.931Z,100.00
2023-05-13T23:29:04.379Z,100.00
2023-05-13T23:32:08.080Z,100.00
2023-05-13T23:35:11.637Z,100.00
2023-05-13T23:38:14.593Z,100.00
2023-05-13T23:41:17.978Z,100.00
2023-05-13T23:44:22.497Z,100.00
2023-05-13T23:47:28.375Z,100.00
2023-05-13T23:50:31.436Z,100.00
2023-05-13T23:53:34.801Z,100.00
2023-05-13T23:56:37.725Z,100.00
2023-05-13T23:59:42.105Z,100.00
